Time;durP1;ratioP1;P1;durP2;ratioP2;P2;SDS_P1;SDS_P2;PMS_P1;PMS_P2;Temp;Humidity;BMP_temperature;BMP_pressure;BME280_temperature;BME280_humidity;BME280_pressure;Samples;Min_cycle;Max_cycle;Signal;HPM_P1;HPM_P2
2021/06/01 00:00:20;;;;;;;15.47;9.97;;;;;;;15.29;100.00;101772.27;1814380;79;26320;-73
2021/06/01 00:02:50;;;;;;;12.37;10.40;;;;;;;15.21;100.00;101772.91;1812585;79;26743;-72
2021/06/01 00:05:19;;;;;;;13.53;10.70;;;;;;;15.02;100.00;101776.42;1811183;79;26252;-66
2021/06/01 00:07:49;;;;;;;13.63;11.03;;;;;;;14.97;100.00;101769.46;1811257;79;26246;-66
2021/06/01 00:10:19;;;;;;;15.00;10.80;;;;;;;15.07;100.00;101761.55;1811237;79;26772;-66
2021/06/01 00:12:50;;;;;;;15.67;11.13;;;;;;;14.85;100.00;101760.61;1811257;79;26251;-66
2021/06/01 00:15:20;;;;;;;13.30;10.00;;;;;;;14.91;100.00;101757.22;1811341;79;26393;-65
2021/06/01 00:17:50;;;;;;;13.03;10.47;;;;;;;14.92;100.00;101755.54;1811180;79;26219;-73
2021/06/01 00:20:20;;;;;;;13.60;11.80;;;;;;;14.78;100.00;101755.08;1811244;79;26488;-73
2021/06/01 00:22:52;;;;;;;14.17;11.37;;;;;;;14.79;100.00;101755.36;1811380;79;26247;-73
2021/06/01 00:25:22;;;;;;;12.80;10.60;;;;;;;14.71;100.00;101751.79;1811269;79;26251;-73
2021/06/01 00:27:51;;;;;;;14.37;10.30;;;;;;;14.57;100.00;101748.25;1811217;76;26787;-74
2021/06/01 00:30:23;;;;;;;15.03;10.83;;;;;;;14.52;100.00;101742.69;1811255;79;26310;-73
2021/06/01 00:32:53;;;;;;;14.37;11.13;;;;;;;14.52;100.00;101749.67;1811152;79;26219;-73
2021/06/01 00:35:23;;;;;;;17.30;11.60;;;;;;;14.53;100.00;101756.94;1811167;79;26701;-73
2021/06/01 00:37:53;;;;;;;14.00;11.50;;;;;;;14.52;100.00;101745.48;1811137;79;26250;-73
2021/06/01 00:40:23;;;;;;;12.33;10.57;;;;;;;14.42;100.00;101751.13;1811146;79;26259;-73
2021/06/01 00:42:53;;;;;;;14.23;11.23;;;;;;;14.47;100.00;101746.06;1811257;79;26263;-73
2021/06/01 00:45:25;;;;;;;15.17;11.13;;;;;;;14.39;100.00;101739.69;1811466;79;26266;-73
2021/06/01 00:47:55;;;;;;;15.50;11.20;;;;;;;14.22;100.00;101741.44;1811283;79;26246;-73
2021/06/01 00:50:27;;;;;;;16.63;11.90;;;;;;;14.13;100.00;101738.41;1811270;79;26313;-66
2021/06/01 00:53:00;;;;;;;15.70;12.40;;;;;;;14.02;100.00;101736.80;1811362;79;26231;-73
2021/06/01 00:55:30;;;;;;;14.80;11.43;;;;;;;14.02;100.00;101735.97;1811255;79;26843;-66
2021/06/01 00:58:00;;;;;;;17.37;12.20;;;;;;;14.00;100.00;101743.78;1811307;79;26259;-73
2021/06/01 01:01:03;;;;;;;16.27;11.70;;;;;;;13.96;100.00;101738.50;1811419;79;26373;-65
2021/06/01 01:03:23;;;;;;;14.73;12.70;;;;;;;13.94;100.00;101737.96;1809961;79;26236;-74
2021/06/01 01:06:02;;;;;;;16.63;12.57;;;;;;;14.06;100.00;101732.88;1811275;79;26204;-67
2021/06/01 01:08:46;;;;;;;13.97;11.70;;;;;;;14.06;100.00;101735.66;1809965;79;26324;-67
2021/06/01 01:11:09;;;;;;;19.00;13.17;;;;;;;13.88;100.00;101743.28;1809788;79;26199;-74
2021/06/01 01:13:43;;;;;;;16.57;13.03;;;;;;;13.80;100.00;101737.73;1751362;81;26234;-74
2021/06/01 01:16:14;;;;;;;16.57;13.30;;;;;;;13.84;100.00;101733.25;1751403;82;26232;-74
2021/06/01 01:18:47;;;;;;;15.77;12.93;;;;;;;13.74;100.00;101729.64;1751314;81;26258;-75
2021/06/01 01:21:21;;;;;;;14.23;11.17;;;;;;;13.68;100.00;101740.02;1751408;82;26238;-67
2021/06/01 01:23:56;;;;;;;20.83;12.73;;;;;;;13.72;100.00;101738.88;1792239;79;26207;-74
2021/06/01 01:26:30;;;;;;;14.20;11.67;;;;;;;13.69;100.00;101732.73;1811090;76;26211;-67
2021/06/01 01:29:04;;;;;;;18.47;12.50;;;;;;;13.67;100.00;101731.36;1810581;79;26638;-67
2021/06/01 01:31:37;;;;;;;16.23;12.37;;;;;;;13.76;100.00;101731.61;1811232;79;26215;-74
2021/06/01 01:34:09;;;;;;;19.33;13.20;;;;;;;13.74;100.00;101731.04;1811228;79;26270;-67
2021/06/01 01:36:40;;;;;;;15.07;11.53;;;;;;;13.79;100.00;101724.05;1811388;79;26382;-74
2021/06/01 01:39:11;;;;;;;17.53;12.13;;;;;;;13.69;100.00;101720.17;1811220;79;26228;-74
2021/06/01 01:41:43;;;;;;;16.57;11.60;;;;;;;13.59;100.00;101730.00;1811319;79;26677;-67
2021/06/01 01:44:17;;;;;;;17.30;12.70;;;;;;;13.61;100.00;101720.77;1811231;79;26231;-73
2021/06/01 01:46:59;;;;;;;15.10;11.67;;;;;;;13.66;100.00;101717.12;1811414;79;26662;-67
2021/06/01 01:49:26;;;;;;;13.63;11.10;;;;;;;13.59;100.00;101725.81;1810129;79;26285;-75
2021/06/01 01:51:59;;;;;;;15.47;11.17;;;;;;;13.60;100.00;101719.11;1811317;79;26219;-67
2021/06/01 01:54:32;;;;;;;17.43;12.53;;;;;;;13.67;100.00;101722.98;1811209;79;26227;-75
2021/06/01 01:57:09;;;;;;;15.57;12.00;;;;;;;13.65;100.00;101719.62;1811237;79;26336;-67
2021/06/01 01:59:40;;;;;;;14.93;12.03;;;;;;;13.59;100.00;101718.83;1811234;79;26748;-74
2021/06/01 02:02:12;;;;;;;15.87;11.80;;;;;;;13.46;100.00;101718.03;1811312;79;26211;-75
2021/06/01 02:04:44;;;;;;;14.23;10.70;;;;;;;13.48;100.00;101718.56;1811352;79;26744;-75
2021/06/01 02:07:14;;;;;;;15.37;11.70;;;;;;;13.34;100.00;101715.27;1811188;79;26714;-75
2021/06/01 02:09:44;;;;;;;17.07;12.00;;;;;;;13.31;100.00;101715.26;1811209;79;26221;-67
2021/06/01 02:12:16;;;;;;;16.67;11.50;;;;;;;13.27;100.00;101713.31;1811277;79;26215;-75
2021/06/01 02:14:45;;;;;;;14.83;11.30;;;;;;;13.25;100.00;101711.38;1811212;79;26286;-67
2021/06/01 02:17:15;;;;;;;17.40;11.90;;;;;;;13.33;100.00;101706.06;1811217;79;26223;-75
2021/06/01 02:19:47;;;;;;;16.80;12.20;;;;;;;13.35;100.00;101701.61;1811188;78;26685;-75
2021/06/01 02:22:25;;;;;;;18.80;12.47;;;;;;;13.26;100.00;101706.09;1738350;82;26233;-67
2021/06/01 02:24:57;;;;;;;17.63;13.17;;;;;;;13.20;100.00;101694.09;1810023;79;26410;-67
2021/06/01 02:27:31;;;;;;;15.03;11.97;;;;;;;13.24;100.00;101689.62;1811210;77;26631;-74
2021/06/01 02:30:07;;;;;;;16.67;11.77;;;;;;;13.09;100.00;101691.83;1751311;81;26226;-67
2021/06/01 02:32:39;;;;;;;16.43;12.33;;;;;;;13.10;100.00;101691.28;1811322;79;26262;-75
2021/06/01 02:35:12;;;;;;;17.43;12.17;;;;;;;13.01;100.00;101688.78;1811428;79;26642;-75
2021/06/01 02:37:44;;;;;;;17.07;11.90;;;;;;;13.00;100.00;101689.36;1811201;79;26677;-74
2021/06/01 02:40:17;;;;;;;14.93;12.30;;;;;;;13.01;100.00;101688.78;1751302;81;26230;-67
2021/06/01 02:42:47;;;;;;;15.77;12.47;;;;;;;12.87;100.00;101689.94;1811301;79;26684;-66
2021/06/01 02:45:20;;;;;;;16.63;11.50;;;;;;;12.93;100.00;101691.58;1811171;79;26223;-68
2021/06/01 02:47:52;;;;;;;13.43;11.57;;;;;;;13.03;100.00;101687.95;1811231;79;26259;-74
2021/06/01 02:50:23;;;;;;;15.50;11.67;;;;;;;13.06;100.00;101681.80;1811278;79;26562;-74
2021/06/01 02:52:54;;;;;;;17.00;11.63;;;;;;;12.87;100.00;101683.52;1811231;79;26278;-66
2021/06/01 02:55:26;;;;;;;16.13;11.17;;;;;;;12.73;100.00;101681.30;1811303;79;26302;-70
2021/06/01 02:57:56;;;;;;;15.03;11.63;;;;;;;12.95;100.00;101679.61;1811281;79;26215;-68
2021/06/01 03:00:28;;;;;;;16.63;11.63;;;;;;;12.98;100.00;101685.17;1811169;79;26274;-74
2021/06/01 03:02:58;;;;;;;12.80;11.27;;;;;;;12.95;100.00;101678.21;1811175;79;26278;-67
2021/06/01 03:05:32;;;;;;;12.27;10.97;;;;;;;12.97;100.00;101672.33;1811194;79;26668;-68
2021/06/01 03:08:12;;;;;;;16.20;12.27;;;;;;;12.92;100.00;101670.97;1811213;79;26670;-67
2021/06/01 03:10:42;;;;;;;13.77;12.07;;;;;;;12.59;100.00;101670.42;1811226;79;26215;-74
2021/06/01 03:13:12;;;;;;;12.53;10.83;;;;;;;12.49;100.00;101670.44;1811198;79;26277;-75
2021/06/01 03:15:41;;;;;;;16.40;11.77;;;;;;;12.50;100.00;101671.24;1811176;79;26642;-74
2021/06/01 03:18:12;;;;;;;14.37;11.70;;;;;;;12.67;100.00;101665.67;1811131;78;26282;-66
2021/06/01 03:20:42;;;;;;;15.30;11.17;;;;;;;12.75;100.00;101666.50;1811260;79;26523;-74
2021/06/01 03:23:13;;;;;;;14.90;11.47;;;;;;;12.63;100.00;101661.77;1811271;79;26390;-67
2021/06/01 03:25:44;;;;;;;16.50;11.40;;;;;;;12.67;100.00;101660.09;1811194;79;26745;-75
2021/06/01 03:28:14;;;;;;;17.47;11.60;;;;;;;12.51;100.00;101664.01;1811073;76;26416;-67
2021/06/01 03:30:45;;;;;;;16.53;11.57;;;;;;;12.49;100.00;101659.28;1811318;79;26313;-75
2021/06/01 03:33:16;;;;;;;14.70;11.43;;;;;;;12.50;100.00;101665.12;1811216;79;26278;-75
2021/06/01 03:35:46;;;;;;;15.50;11.90;;;;;;;12.44;100.00;101666.80;1811193;79;26231;-74
2021/06/01 03:38:16;;;;;;;14.73;11.00;;;;;;;12.36;100.00;101666.80;1811179;79;26289;-74
2021/06/01 03:40:46;;;;;;;18.37;11.30;;;;;;;12.31;100.00;101664.00;1811252;79;26259;-67
2021/06/01 03:43:16;;;;;;;15.83;12.10;;;;;;;12.33;100.00;101661.21;1811172;79;26282;-67
2021/06/01 03:45:46;;;;;;;13.80;10.27;;;;;;;12.46;100.00;101664.00;1811194;79;26673;-66
2021/06/01 03:48:16;;;;;;;14.10;10.93;;;;;;;12.36;100.00;101665.96;1811243;79;26305;-74
2021/06/01 03:50:46;;;;;;;17.43;11.57;;;;;;;12.43;100.00;101667.91;1811209;79;26227;-75
2021/06/01 03:53:33;;;;;;;14.90;11.30;;;;;;;12.31;100.00;101671.81;1821140;79;33648;-75
2021/06/01 03:56:03;;;;;;;16.90;11.83;;;;;;;12.11;100.00;101663.95;1821626;79;26325;-75
2021/06/01 03:58:33;;;;;;;15.27;11.43;;;;;;;12.18;100.00;101663.99;1820653;79;26808;-74
2021/06/01 04:01:03;;;;;;;14.70;10.50;;;;;;;12.20;100.00;101666.48;1802963;77;936902;-75
2021/06/01 04:03:37;;;;;;;14.13;10.90;;;;;;;12.19;100.00;101660.66;1821559;79;26778;-75
2021/06/01 04:06:04;;;;;;;12.93;11.17;;;;;;;12.38;100.00;101658.98;1820685;79;26218;-74
2021/06/01 04:08:35;;;;;;;14.60;11.37;;;;;;;12.33;100.00;101657.03;1821551;79;26277;-67
2021/06/01 04:11:05;;;;;;;15.20;11.00;;;;;;;12.30;100.00;101656.75;1821510;79;26254;-67
2021/06/01 04:13:35;;;;;;;15.03;11.67;;;;;;;12.23;100.00;101654.81;1821569;79;26207;-74
2021/06/01 04:16:06;;;;;;;13.97;10.83;;;;;;;12.19;100.00;101659.26;1821675;79;26220;-67
2021/06/01 04:18:36;;;;;;;15.13;11.30;;;;;;;12.19;100.00;101656.47;1821689;77;26682;-68
2021/06/01 04:21:06;;;;;;;15.57;11.37;;;;;;;12.35;100.00;101651.74;1821596;79;26215;-75
2021/06/01 04:23:36;;;;;;;14.33;11.30;;;;;;;12.26;100.00;101652.85;1821748;79;26278;-74
2021/06/01 04:26:05;;;;;;;12.90;10.57;;;;;;;12.19;100.00;101653.69;1822388;79;26218;-74
2021/06/01 04:28:35;;;;;;;12.80;10.00;;;;;;;12.16;100.00;101651.44;1822243;77;26652;-67
2021/06/01 04:31:05;;;;;;;12.90;10.67;;;;;;;12.14;100.00;101653.13;1814513;79;26337;-75
2021/06/01 04:33:35;;;;;;;14.80;10.67;;;;;;;12.24;100.00;101650.33;1813227;79;26662;-74
2021/06/01 04:36:06;;;;;;;14.77;10.57;;;;;;;12.25;100.00;101646.99;1811338;79;26655;-67
2021/06/01 04:38:36;;;;;;;11.67;10.43;;;;;;;12.27;100.00;101641.44;1811214;79;26726;-67
2021/06/01 04:41:06;;;;;;;13.10;10.67;;;;;;;12.21;100.00;101639.75;1811221;79;26211;-67
2021/06/01 04:43:36;;;;;;;12.97;10.97;;;;;;;12.27;100.00;101642.00;1811343;79;26230;-74
2021/06/01 04:46:05;;;;;;;12.67;9.97;;;;;;;12.26;100.00;101638.92;1811285;79;26227;-74
2021/06/01 04:48:35;;;;;;;13.90;11.33;;;;;;;12.23;100.00;101637.54;1811320;79;26323;-66
2021/06/01 04:51:05;;;;;;;14.83;11.33;;;;;;;12.26;100.00;101641.71;1811333;79;26366;-74
2021/06/01 04:53:35;;;;;;;15.20;10.90;;;;;;;12.28;100.00;101637.52;1811254;79;26289;-74
2021/06/01 04:56:06;;;;;;;14.40;11.20;;;;;;;12.35;100.00;101640.60;1811307;79;26289;-74
2021/06/01 04:58:36;;;;;;;12.40;9.90;;;;;;;12.40;100.00;101632.25;1811274;79;26732;-74
2021/06/01 05:01:05;;;;;;;17.10;10.13;;;;;;;12.45;100.00;101638.64;1811241;79;26289;-67
2021/06/01 05:03:36;;;;;;;12.17;10.30;;;;;;;12.51;100.00;101632.52;1811177;79;26208;-67
2021/06/01 05:06:07;;;;;;;13.20;9.87;;;;;;;12.55;100.00;101634.47;1811206;79;26286;-74
2021/06/01 05:08:37;;;;;;;14.77;10.80;;;;;;;12.60;100.00;101630.84;1811222;79;26219;-67
2021/06/01 05:11:07;;;;;;;12.67;11.03;;;;;;;12.69;100.00;101633.34;1811311;79;26309;-75
2021/06/01 05:13:38;;;;;;;14.63;10.83;;;;;;;12.77;100.00;101627.20;1814378;79;26215;-74
2021/06/01 05:16:08;;;;;;;14.90;10.97;;;;;;;12.87;100.00;101631.94;1814469;79;26231;-74
2021/06/01 05:18:37;;;;;;;15.87;11.17;;;;;;;12.78;100.00;101631.67;1812640;78;26247;-74
2021/06/01 05:21:08;;;;;;;11.30;10.10;;;;;;;12.74;100.00;101628.61;1811204;79;26219;-67
2021/06/01 05:23:38;;;;;;;15.10;11.23;;;;;;;12.84;100.00;101630.52;1811324;79;26223;-67
2021/06/01 05:26:08;;;;;;;15.73;10.90;;;;;;;12.82;100.00;101632.78;1811370;79;26227;-67
2021/06/01 05:28:38;;;;;;;13.73;10.23;;;;;;;12.92;100.00;101634.72;1811228;79;26278;-68
2021/06/01 05:31:16;;;;;;;15.90;11.57;;;;;;;12.98;100.00;101633.02;1811294;78;26356;-75
2021/06/01 05:33:48;;;;;;;14.33;10.93;;;;;;;13.07;100.00;101629.93;1810821;79;26212;-67
2021/06/01 05:36:17;;;;;;;15.27;11.20;;;;;;;13.03;100.00;101630.78;1811307;79;26212;-67
2021/06/01 05:38:47;;;;;;;18.63;12.53;;;;;;;13.17;100.00;101629.95;1811364;79;26364;-67
2021/06/01 05:41:17;;;;;;;18.80;12.53;;;;;;;13.29;100.00;101622.64;1811258;79;26293;-74
2021/06/01 05:43:47;;;;;;;17.63;12.20;;;;;;;13.41;100.00;101618.97;1811224;79;26650;-75
2021/06/01 05:46:17;;;;;;;15.60;12.37;;;;;;;13.46;100.00;101617.55;1811266;79;26234;-67
2021/06/01 05:48:47;;;;;;;19.27;12.97;;;;;;;13.43;100.00;101620.09;1811306;79;26285;-68
2021/06/01 05:51:20;;;;;;;17.50;13.63;;;;;;;13.57;100.00;101630.89;1811275;79;26223;-75
2021/06/01 05:53:51;;;;;;;16.63;13.53;;;;;;;13.65;100.00;101621.91;1811472;79;26207;-67
2021/06/01 05:56:20;;;;;;;22.83;14.27;;;;;;;13.75;100.00;101623.27;1811303;79;26631;-74
2021/06/01 05:58:50;;;;;;;19.37;14.87;;;;;;;13.82;100.00;101618.19;1811275;79;26223;-67
2021/06/01 06:01:20;;;;;;;21.03;15.47;;;;;;;13.87;100.00;101615.36;1811210;79;26222;-74
2021/06/01 06:03:51;;;;;;;26.33;15.30;;;;;;;14.02;100.00;101619.48;1811213;79;26666;-67
2021/06/01 06:06:21;;;;;;;21.50;16.03;;;;;;;14.08;100.00;101620.25;1790340;79;26334;-75
2021/06/01 06:08:51;;;;;;;24.53;15.67;;;;;;;14.18;100.00;101615.16;1809470;79;26408;-67
2021/06/01 06:11:20;;;;;;;25.70;16.83;;;;;;;14.29;100.00;101609.20;1809308;79;26207;-68
2021/06/01 06:13:50;;;;;;;22.83;16.20;;;;;;;14.36;100.00;101607.52;1810772;79;26206;-67
2021/06/01 06:16:20;;;;;;;23.13;16.27;;;;;;;14.32;100.00;101612.83;1811229;79;26224;-67
2021/06/01 06:18:53;;;;;;;24.90;17.47;;;;;;;14.39;100.00;101612.52;1811168;78;26349;-74
2021/06/01 06:21:23;;;;;;;24.43;17.50;;;;;;;14.42;100.00;101608.56;1811201;79;26274;-74
2021/06/01 06:23:53;;;;;;;23.17;16.83;;;;;;;14.51;100.00;101605.41;1811203;79;26792;-67
2021/06/01 06:26:25;;;;;;;24.83;17.20;;;;;;;14.63;100.00;101607.84;1811280;79;26333;-68
2021/06/01 06:28:54;;;;;;;24.53;16.63;;;;;;;14.63;100.00;101609.80;1736866;82;26229;-67
2021/06/01 06:31:24;;;;;;;26.13;16.47;;;;;;;14.82;100.00;101603.73;1810933;76;26263;-76
2021/06/01 06:33:54;;;;;;;23.13;16.90;;;;;;;14.95;100.00;101603.87;1811301;79;26296;-75
2021/06/01 06:36:24;;;;;;;23.57;17.43;;;;;;;14.98;100.00;101604.66;1811190;79;26701;-67
2021/06/01 06:38:54;;;;;;;27.20;18.07;;;;;;;14.98;100.00;101603.83;1811307;79;26212;-74
2021/06/01 06:41:24;;;;;;;28.67;19.13;;;;;;;15.06;100.00;101601.77;1811276;79;26243;-74
2021/06/01 06:43:54;;;;;;;23.50;18.27;;;;;;;15.03;100.00;101610.77;1811189;79;26273;-75
2021/06/01 06:46:26;;;;;;;26.87;18.00;;;;;;;15.20;100.00;101606.94;1811184;79;26336;-67
2021/06/01 06:48:58;;;;;;;29.27;18.47;;;;;;;15.27;100.00;101610.23;1736110;82;26221;-67
2021/06/01 06:51:28;;;;;;;24.87;18.03;;;;;;;15.31;100.00;101600.10;1809171;79;26222;-67
2021/06/01 06:53:59;;;;;;;27.53;18.60;;;;;;;15.35;100.00;101596.13;1811295;79;26211;-75
2021/06/01 06:56:30;;;;;;;25.50;19.03;;;;;;;15.39;100.00;101598.60;1811262;79;26219;-67
2021/06/01 06:59:01;;;;;;;28.37;17.77;;;;;;;15.41;100.00;101589.31;1811277;79;26285;-67
2021/06/01 07:01:31;;;;;;;23.73;17.17;;;;;;;15.55;100.00;101593.66;1811200;79;26222;-75
2021/06/01 07:04:01;;;;;;;27.97;17.50;;;;;;;15.62;100.00;101586.55;1814312;79;26226;-75
2021/06/01 07:06:31;;;;;;;28.60;17.13;;;;;;;15.72;100.00;101588.38;1814367;79;26215;-75
2021/06/01 07:09:01;;;;;;;26.00;17.93;;;;;;;15.77;100.00;101585.52;1811315;79;26290;-67
2021/06/01 07:11:31;;;;;;;23.93;16.83;;;;;;;15.87;100.00;101585.38;1811190;79;26247;-74
2021/06/01 07:14:09;;;;;;;25.47;16.00;;;;;;;15.88;100.00;101584.22;1811453;79;26653;-67
2021/06/01 07:16:39;;;;;;;27.23;18.10;;;;;;;16.02;100.00;101583.73;1811350;79;26219;-67
2021/06/01 07:19:09;;;;;;;22.83;16.87;;;;;;;16.12;100.00;101577.13;1811153;78;26261;-74
2021/06/01 07:21:39;;;;;;;24.30;17.70;;;;;;;16.17;100.00;101586.27;1811279;79;26252;-74
2021/06/01 07:24:10;;;;;;;21.03;15.87;;;;;;;16.27;100.00;101581.08;1811156;79;26236;-73
2021/06/01 07:26:40;;;;;;;24.93;17.60;;;;;;;16.36;100.00;101572.23;1811168;79;26263;-74
2021/06/01 07:29:10;;;;;;;23.73;17.20;;;;;;;16.48;100.00;101568.38;1811217;79;26318;-67
2021/06/01 07:31:40;;;;;;;21.77;16.47;;;;;;;16.55;100.00;101572.20;1811193;78;26314;-67
2021/06/01 07:34:09;;;;;;;22.67;16.87;;;;;;;16.76;100.00;101571.55;1811160;79;26843;-73
2021/06/01 07:36:39;;;;;;;19.50;14.67;;;;;;;17.03;100.00;101567.12;1811223;79;26199;-74
2021/06/01 07:39:09;;;;;;;20.67;14.73;;;;;;;17.19;100.00;101569.30;1811169;79;26321;-71
2021/06/01 07:41:39;;;;;;;22.83;16.00;;;;;;;17.40;100.00;101561.84;1811300;79;26392;-75
2021/06/01 07:44:09;;;;;;;23.10;16.30;;;;;;;17.59;100.00;101558.34;1811131;79;26235;-67
2021/06/01 07:46:39;;;;;;;20.83;15.80;;;;;;;17.63;100.00;101549.54;1811269;79;24172;-74
2021/06/01 07:49:10;;;;;;;19.10;15.03;;;;;;;17.83;100.00;101551.91;1811273;79;24584;-75
2021/06/01 07:51:40;;;;;;;21.37;15.67;;;;;;;17.95;100.00;101549.93;1791008;79;26309;-67
2021/06/01 07:54:10;;;;;;;21.83;17.43;;;;;;;18.15;100.00;101546.61;1809428;79;26279;-67
2021/06/01 07:56:40;;;;;;;22.60;15.63;;;;;;;18.30;100.00;101546.81;1810454;79;26300;-68
2021/06/01 07:59:10;;;;;;;22.30;15.63;;;;;;;18.47;100.00;101531.45;1811147;79;26729;-67
2021/06/01 08:01:40;;;;;;;23.07;16.97;;;;;;;18.62;100.00;101519.81;1811166;79;24215;-67
2021/06/01 08:04:10;;;;;;;21.03;14.53;;;;;;;18.62;100.00;101519.81;1811229;79;24227;-68
2021/06/01 08:06:40;;;;;;;22.63;15.23;;;;;;;18.87;100.00;101526.13;1811138;79;24177;-75
2021/06/01 08:09:10;;;;;;;20.27;13.90;;;;;;;18.87;100.00;101526.13;1811094;79;26792;-74
2021/06/01 08:11:40;;;;;;;22.60;16.43;;;;;;;18.91;100.00;101524.33;1811267;79;24121;-67
2021/06/01 08:14:10;;;;;;;21.17;13.60;;;;;;;19.07;100.00;101520.52;1811226;79;24149;-67
2021/06/01 08:16:43;;;;;;;21.93;13.57;;;;;;;19.22;100.00;101517.23;1811179;79;24218;-67
2021/06/01 08:19:14;;;;;;;21.03;13.87;;;;;;;19.29;100.00;101517.61;1811050;78;24183;-67
2021/06/01 08:21:51;;;;;;;20.47;14.27;;;;;;;19.43;100.00;101521.13;1811163;79;24234;-74
2021/06/01 08:24:16;;;;;;;23.20;14.80;;;;;;;19.55;100.00;101514.87;1810349;79;24317;-67
2021/06/01 08:26:48;;;;;;;18.97;14.17;;;;;;;19.73;100.00;101508.64;1811246;79;24622;-68
2021/06/01 08:29:18;;;;;;;18.93;14.17;;;;;;;19.84;100.00;101511.40;1736573;82;24172;-74
2021/06/01 08:31:48;;;;;;;18.60;13.67;;;;;;;19.96;100.00;101508.16;1809158;78;24153;-67
2021/06/01 08:34:18;;;;;;;15.50;12.27;;;;;;;20.16;100.00;101504.39;1809166;79;24619;-67
2021/06/01 08:36:49;;;;;;;17.07;12.33;;;;;;;20.00;100.00;101506.91;1809150;79;24156;-74
2021/06/01 08:39:24;;;;;;;19.37;13.60;;;;;;;20.17;100.00;101499.01;1809285;79;24600;-73
2021/06/01 08:41:51;;;;;;;19.17;13.57;;;;;;;20.22;100.00;101505.89;1808532;79;24582;-67
2021/06/01 08:44:20;;;;;;;18.57;13.50;;;;;;;20.42;100.00;101506.62;1809149;79;24156;-74
2021/06/01 08:46:53;;;;;;;16.07;13.57;;;;;;;20.29;100.00;101504.24;1809227;79;24165;-68
2021/06/01 08:49:24;;;;;;;18.43;13.30;;;;;;;20.73;100.00;101500.72;1809301;79;24152;-75
2021/06/01 08:51:54;;;;;;;16.70;12.67;;;;;;;20.75;100.00;101497.79;1809211;79;24153;-74
2021/06/01 08:54:24;;;;;;;18.27;12.83;;;;;;;20.96;100.00;101494.23;1809591;79;24153;-75
2021/06/01 08:56:54;;;;;;;16.47;12.50;;;;;;;20.98;100.00;101489.05;1811256;79;24557;-67
2021/06/01 08:59:23;;;;;;;14.97;11.47;;;;;;;20.97;100.00;101483.16;1811184;79;24160;-67
2021/06/01 09:01:53;;;;;;;13.97;11.63;;;;;;;21.03;100.00;101477.57;1811249;79;24145;-67
2021/06/01 09:04:23;;;;;;;17.37;12.73;;;;;;;21.11;100.00;101483.75;1811253;79;26653;-75
2021/06/01 09:06:58;;;;;;;17.67;12.23;;;;;;;21.11;100.00;101483.17;1811248;79;24238;-74
2021/06/01 09:09:40;;;;;;;15.03;11.17;;;;;;;21.29;100.00;101466.98;1810916;79;24204;-67
2021/06/01 09:12:20;;;;;;;15.37;11.33;;;;;;;21.37;100.00;101466.09;1810479;79;24212;-75
2021/06/01 09:23:17;;;;;;;14.40;9.63;;;;;;;21.61;100.00;101457.75;1800893;79;26850;-67
2021/06/01 09:25:55;;;;;;;14.10;9.97;;;;;;;21.66;100.00;101461.78;1811374;79;24164;-74
2021/06/01 09:28:19;;;;;;;13.20;10.07;;;;;;;21.42;100.00;101454.58;1810217;79;24160;-74
2021/06/01 09:30:54;;;;;;;17.37;9.20;;;;;;;21.70;100.00;101457.09;1811234;79;24148;-74
2021/06/01 09:33:32;;;;;;;11.80;8.20;;;;;;;21.67;100.00;101454.96;1811294;76;24208;-67
2021/06/01 09:36:03;;;;;;;12.67;9.77;;;;;;;21.58;100.00;101451.38;1759659;81;24681;-68
2021/06/01 09:38:45;;;;;;;13.83;10.47;;;;;;;21.81;100.00;101446.20;1768860;81;26738;-74
2021/06/01 09:41:17;;;;;;;14.73;9.37;;;;;;;21.93;100.00;101448.27;1736386;81;24263;-67
2021/06/01 09:43:55;;;;;;;12.43;9.57;;;;;;;21.88;100.00;101437.97;1735811;82;24300;-66
2021/06/01 09:46:27;;;;;;;15.67;9.83;;;;;;;22.08;100.00;101438.53;1733954;82;24161;-67
2021/06/01 09:48:59;;;;;;;13.60;9.10;;;;;;;22.21;100.00;101436.56;1811216;79;24164;-75
2021/06/01 09:51:33;;;;;;;13.67;11.07;;;;;;;22.34;100.00;101436.01;1808701;79;24214;-74
2021/06/01 09:54:33;;;;;;;10.73;9.43;;;;;;;22.25;100.00;101436.11;1811372;79;24153;-74
2021/06/01 09:57:06;;;;;;;12.70;9.37;;;;;;;22.33;100.00;101436.63;1811426;79;24245;-67
2021/06/01 09:59:35;;;;;;;12.93;9.00;;;;;;;22.18;100.00;101435.28;1810077;79;24244;-68
2021/06/01 10:02:07;;;;;;;13.80;10.27;;;;;;;22.03;100.00;101441.61;1811350;79;24262;-66
2021/06/01 10:04:37;;;;;;;12.43;9.80;;;;;;;22.28;100.00;101431.19;1808764;79;24590;-67
2021/06/01 10:07:10;;;;;;;13.30;9.63;;;;;;;22.43;100.00;101433.33;1811220;79;24234;-75
2021/06/01 10:09:48;;;;;;;13.00;9.33;;;;;;;22.48;100.00;101428.85;1809155;79;24605;-67
2021/06/01 10:12:23;;;;;;;10.97;8.97;;;;;;;22.47;100.00;101424.95;1811375;79;24164;-74
2021/06/01 10:14:50;;;;;;;10.40;7.30;;;;;;;22.37;100.00;101422.59;1810674;79;24156;-74
2021/06/01 10:17:20;;;;;;;11.80;8.60;;;;;;;22.22;100.00;101424.08;1811298;79;24662;-74
2021/06/01 10:19:52;;;;;;;14.30;9.70;;;;;;;22.40;100.00;101420.46;1811386;78;24185;-68
2021/06/01 10:22:23;;;;;;;12.30;9.13;;;;;;;22.67;100.00;101421.21;1811285;79;24684;-74
2021/06/01 10:24:53;;;;;;;8.80;7.63;;;;;;;22.74;100.00;101417.81;1811338;79;24241;-73
2021/06/01 10:27:24;;;;;;;12.93;8.07;;;;;;;22.72;100.00;101423.81;1811228;79;24742;-72
2021/06/01 10:29:53;;;;;;;10.03;7.78;;;;;;;22.74;100.00;101422.06;1811332;79;24166;-73
2021/06/01 10:32:25;;;;;;;8.57;6.63;;;;;;;22.57;100.00;101418.25;1811292;79;24192;-66
2021/06/01 10:34:57;;;;;;;8.43;6.63;;;;;;;22.75;100.00;101420.30;1811314;76;24220;-65
2021/06/01 10:52:17;;;;;;;4.30;3.50;;;;;;;22.82;100.00;101409.20;1781105;79;24195;-66
2021/06/01 10:55:09;;;;;;;7.23;3.37;;;;;;;23.00;100.00;101408.36;1811346;79;24223;-74
2021/06/01 10:57:58;;;;;;;5.17;4.27;;;;;;;23.28;100.00;101397.91;1811275;79;24588;-66
2021/06/01 11:03:20;;;;;;;9.70;5.13;;;;;;;22.90;100.00;101401.16;1811407;79;24280;-66
2021/06/01 11:06:13;;;;;;;4.37;3.20;;;;;;;22.96;100.00;101396.09;1735774;82;24255;-74
2021/06/01 11:08:45;;;;;;;4.90;3.40;;;;;;;23.09;100.00;101386.39;1809213;79;24663;-66
2021/06/01 11:11:33;;;;;;;7.07;4.40;;;;;;;23.10;100.00;101383.17;1739241;82;24200;-74
2021/06/01 11:14:06;;;;;;;3.92;3.50;;;;;;;23.08;100.00;101385.56;1809717;79;24210;-74
2021/06/01 11:16:55;;;;;;;5.53;3.60;;;;;;;22.93;100.00;101389.72;1808692;79;24292;-74
2021/06/01 11:19:28;;;;;;;4.47;3.43;;;;;;;22.80;100.00;101377.58;1811293;78;24200;-74
2021/06/01 11:22:03;;;;;;;4.37;3.63;;;;;;;22.95;100.00;101373.18;1811387;79;24149;-66
2021/06/01 11:25:04;;;;;;;9.60;4.40;;;;;;;23.18;100.00;101379.17;1811308;79;24154;-74
2021/06/01 11:33:18;;;;;;;4.87;3.52;;;;;;;23.03;100.00;101376.47;1811273;79;24243;-74
2021/06/01 11:35:57;;;;;;;6.40;4.30;;;;;;;23.11;100.00;101376.92;1811152;78;24385;-66
2021/06/01 11:38:33;;;;;;;9.80;5.67;;;;;;;23.04;100.00;101379.55;1811455;79;24188;-74
2021/06/01 11:44:02;;;;;;;5.13;4.47;;;;;;;23.13;100.00;101378.23;1793843;79;24180;-66
2021/06/01 11:46:40;;;;;;;6.17;4.30;;;;;;;23.32;100.00;101379.62;1811401;79;24238;-66
2021/06/01 11:51:53;;;;;;;6.43;4.23;;;;;;;23.25;100.00;101375.13;1811289;79;24235;-68
2021/06/01 11:54:23;;;;;;;6.17;5.28;;;;;;;23.18;100.00;101369.25;1811218;79;24154;-75
2021/06/01 11:57:07;;;;;;;5.97;4.03;;;;;;;23.17;100.00;101364.76;1811237;79;24180;-74
2021/06/01 12:02:35;;;;;;;5.70;4.45;;;;;;;23.28;100.00;101361.05;1811346;79;24681;-74
2021/06/01 12:05:20;;;;;;;5.05;3.33;;;;;;;23.32;100.00;101356.94;1811169;79;24180;-74